createdAt,value
2022-08-14T00:19:06.426Z,1.30
2022-08-14T04:32:59.246Z,2.40
2022-08-14T04:46:56.761Z,3.25
2022-08-14T04:50:54.121Z,3.70
2022-08-14T04:59:19.932Z,3.30
2022-08-14T05:03:33.412Z,6.93
2022-08-14T05:12:23.891Z,3.50
2022-08-14T05:16:22.029Z,2.63
2022-08-14T05:21:04.834Z,2.20
2022-08-14T05:24:51.127Z,2.50
2022-08-14T05:28:54.857Z,2.25
2022-08-14T05:32:57.753Z,2.30
2022-08-14T05:37:03.467Z,2.58
2022-08-14T05:41:17.380Z,2.75
2022-08-14T05:45:21.995Z,2.45
2022-08-14T05:49:33.134Z,2.38
2022-08-14T05:53:42.144Z,2.60
2022-08-14T05:58:01.320Z,2.42
2022-08-14T06:02:06.434Z,2.80
2022-08-14T06:06:09.462Z,2.30
2022-08-14T06:10:27.999Z,3.10
2022-08-14T06:14:32.733Z,2.97
2022-08-14T06:18:37.517Z,2.80
2022-08-14T06:27:10.106Z,2.67
2022-08-14T06:44:12.576Z,2.70
2022-08-14T06:48:24.261Z,2.55
2022-08-14T09:36:45.410Z,2.38
2022-08-14T12:07:55.307Z,1.50
2022-08-14T12:38:05.697Z,1.60
2022-08-14T12:42:11.717Z,2.13
2022-08-14T12:46:38.014Z,1.48
2022-08-14T12:50:43.605Z,1.45
2022-08-14T12:55:10.687Z,2.00
2022-08-14T12:59:14.761Z,1.90
2022-08-14T13:03:26.895Z,1.83
2022-08-14T13:07:32.627Z,1.60
2022-08-14T13:11:45.490Z,1.60
2022-08-14T13:15:57.384Z,1.75
2022-08-14T13:20:01.026Z,1.70
2022-08-14T13:24:04.810Z,1.70
2022-08-14T13:32:34.206Z,1.20
2022-08-14T13:36:54.953Z,1.75
2022-08-14T13:41:00.012Z,1.67
2022-08-14T13:45:06.487Z,1.60
2022-08-14T13:49:11.478Z,1.40
2022-08-14T13:53:16.503Z,1.40
2022-08-14T13:57:20.399Z,1.60
2022-08-14T14:01:43.631Z,1.70
2022-08-14T14:05:52.635Z,1.52
2022-08-14T14:10:06.467Z,1.35
2022-08-14T14:14:44.851Z,1.52
2022-08-14T14:18:35.792Z,1.35
2022-08-14T14:23:02.713Z,1.30
2022-08-14T14:27:30.039Z,1.63
2022-08-14T14:31:31.108Z,1.60
2022-08-14T14:35:38.603Z,1.40
2022-08-14T14:40:54.069Z,1.60
2022-08-14T14:44:15.782Z,1.45
2022-08-14T14:48:19.639Z,1.38
2022-08-14T14:52:27.840Z,1.52
2022-08-14T14:56:48.178Z,1.48
2022-08-14T15:01:01.597Z,1.50
2022-08-14T15:05:08.256Z,1.73
2022-08-14T15:09:11.254Z,1.38
2022-08-14T15:13:21.201Z,1.50
2022-08-14T15:17:25.079Z,1.60
2022-08-14T15:21:32.295Z,1.52
2022-08-14T15:25:36.638Z,1.33
2022-08-14T15:34:44.996Z,1.40
2022-08-14T15:38:29.293Z,1.50
2022-08-14T15:42:37.368Z,1.55
2022-08-14T15:46:45.434Z,1.70
2022-08-14T15:50:49.188Z,1.73
2022-08-14T15:54:54.046Z,1.52
2022-08-14T15:58:57.047Z,1.80
2022-08-14T16:03:00.487Z,1.95
2022-08-14T16:07:03.573Z,2.05
2022-08-14T16:11:12.457Z,1.88
2022-08-14T16:15:17.190Z,2.10
2022-08-14T16:19:21.336Z,2.10
2022-08-14T16:23:27.863Z,1.95
2022-08-14T16:27:41.563Z,1.95
2022-08-14T16:31:46.246Z,1.60
2022-08-14T16:35:55.756Z,1.70
2022-08-14T16:40:04.158Z,1.92
2022-08-14T16:44:22.109Z,1.45
2022-08-14T16:48:58.050Z,1.80
2022-08-14T16:53:00.895Z,1.90
2022-08-14T16:57:22.689Z,1.70
2022-08-14T17:01:30.081Z,1.60
2022-08-14T17:05:38.133Z,1.90
2022-08-14T17:09:49.185Z,1.40
2022-08-14T17:14:01.295Z,1.20
2022-08-14T17:18:15.046Z,1.55
2022-08-14T17:22:47.611Z,1.65
2022-08-14T17:26:55.170Z,1.55
2022-08-14T17:31:03.967Z,1.70
2022-08-14T17:35:10.032Z,1.75
2022-08-14T17:39:16.168Z,1.80
2022-08-14T17:43:41.312Z,1.42
2022-08-14T17:47:45.702Z,1.70
2022-08-14T17:52:36.432Z,1.67
2022-08-14T17:56:46.817Z,1.38
2022-08-14T18:00:55.549Z,1.58
2022-08-14T18:05:00.187Z,1.77
2022-08-14T18:09:10.594Z,1.58
2022-08-14T18:13:51.480Z,1.58
2022-08-14T18:17:54.504Z,1.50
2022-08-14T18:22:03.976Z,1.60
2022-08-14T18:26:08.734Z,1.85
2022-08-14T18:30:40.284Z,1.77
2022-08-14T18:35:16.115Z,1.80
2022-08-14T18:39:28.754Z,1.70
2022-08-14T18:43:59.219Z,1.75
2022-08-14T18:48:23.040Z,1.60
2022-08-14T18:52:37.924Z,1.60
2022-08-14T18:57:05.773Z,1.65
2022-08-14T19:01:27.858Z,1.80
2022-08-14T19:05:47.582Z,1.80
2022-08-14T19:10:16.667Z,1.50
2022-08-14T19:14:44.108Z,1.40
2022-08-14T19:18:54.042Z,1.60
2022-08-14T19:23:17.371Z,1.65
2022-08-14T19:27:26.132Z,1.77
2022-08-14T19:31:37.117Z,1.50
2022-08-14T19:35:49.746Z,1.92
2022-08-14T19:40:10.962Z,1.70
2022-08-14T19:44:31.812Z,1.95
2022-08-14T19:48:56.990Z,1.92
2022-08-14T19:57:45.816Z,2.05
2022-08-14T20:01:57.166Z,1.83
2022-08-14T20:06:05.411Z,1.80
2022-08-14T20:11:07.902Z,1.70
2022-08-14T20:15:18.014Z,1.70
2022-08-14T20:19:41.391Z,1.63
2022-08-14T20:23:47.914Z,1.80
2022-08-14T20:27:59.528Z,1.92
2022-08-14T20:32:03.007Z,1.60
2022-08-14T20:36:15.133Z,1.73
2022-08-14T20:40:34.785Z,1.63
2022-08-14T20:45:04.316Z,1.60
2022-08-14T20:49:16.562Z,1.77
2022-08-14T20:53:36.336Z,1.88
2022-08-14T20:57:43.890Z,1.60
2022-08-14T21:01:48.621Z,1.77
2022-08-14T21:05:56.799Z,1.45
2022-08-14T21:10:35.330Z,1.60
2022-08-14T21:14:35.561Z,1.92
2022-08-14T21:18:47.240Z,1.80
2022-08-14T21:22:50.763Z,1.77
2022-08-14T21:27:00.293Z,1.80
2022-08-14T21:31:08.357Z,1.60
2022-08-14T21:35:11.750Z,2.22
2022-08-14T21:39:18.896Z,1.65
2022-08-14T21:43:25.212Z,2.13
2022-08-14T21:51:53.502Z,2.33
2022-08-14T21:55:56.725Z,1.88
2022-08-14T22:00:30.139Z,1.90
2022-08-14T22:04:40.737Z,1.60
2022-08-14T22:08:46.268Z,1.60
2022-08-14T22:13:00.805Z,1.60
2022-08-14T22:17:12.593Z,1.80
2022-08-14T22:21:18.247Z,1.70
2022-08-14T22:25:21.393Z,1.92
2022-08-14T22:29:24.678Z,2.05
2022-08-14T22:33:30.873Z,1.90
2022-08-14T22:37:34.545Z,2.03
2022-08-14T22:41:43.703Z,2.10
2022-08-14T22:46:02.258Z,1.92
2022-08-14T22:54:52.222Z,1.90
2022-08-14T22:58:58.075Z,1.73
2022-08-14T23:03:04.254Z,2.00
2022-08-14T23:07:21.688Z,2.05
2022-08-14T23:11:25.811Z,1.90
2022-08-14T23:15:28.753Z,1.77
2022-08-14T23:19:35.041Z,1.90
2022-08-14T23:23:41.610Z,1.75
2022-08-14T23:28:03.085Z,1.90
2022-08-14T23:32:18.641Z,1.67
2022-08-14T23:36:31.440Z,1.70
2022-08-14T23:40:40.359Z,2.10
2022-08-14T23:44:47.057Z,2.08
2022-08-14T23:48:50.908Z,2.28
2022-08-14T23:53:07.048Z,1.90
2022-08-14T23:57:10.849Z,2.53
